Time;durP1;ratioP1;P1;durP2;ratioP2;P2;SDS_P1;SDS_P2;PMS_P1;PMS_P2;Temp;Humidity;BMP_temperature;BMP_pressure;BME280_temperature;BME280_humidity;BME280_pressure;Samples;Min_cycle;Max_cycle;Signal;HPM_P1;HPM_P2
2022/04/04 00:04:56;;;;;;;6.70;4.40;;;3.90;99.90;;;;;;6727247;88;20414;-79
2022/04/04 00:14:56;;;;;;;5.72;3.95;;;3.80;99.90;;;;;;6727813;88;20222;-79
2022/04/04 00:24:57;;;;;;;7.05;4.72;;;3.80;99.90;;;;;;6728859;88;20213;-79
2022/04/04 00:35:00;;;;;;;6.57;4.22;;;3.70;99.90;;;;;;6728496;88;20150;-79
2022/04/04 00:45:01;;;;;;;6.32;4.70;;;3.50;99.90;;;;;;6710853;88;20750;-80
2022/04/04 00:55:02;;;;;;;7.72;5.22;;;3.40;99.90;;;;;;6711256;88;20155;-79
2022/04/04 01:05:04;;;;;;;9.50;5.10;;;3.20;99.90;;;;;;6710821;88;20199;-80
2022/04/04 01:15:05;;;;;;;8.57;5.20;;;3.10;99.90;;;;;;6713588;88;20360;-79
2022/04/04 01:25:06;;;;;;;9.57;5.28;;;2.90;99.90;;;;;;6711468;88;20201;-79
2022/04/04 01:35:07;;;;;;;9.20;5.72;;;3.00;99.90;;;;;;6709348;88;20314;-79
2022/04/04 01:45:09;;;;;;;7.97;4.80;;;2.70;99.90;;;;;;6674668;89;20789;-79
2022/04/04 01:55:10;;;;;;;9.35;5.30;;;2.80;99.90;;;;;;6677934;89;20196;-79
2022/04/04 02:05:10;;;;;;;9.95;5.62;;;2.80;99.90;;;;;;6675968;89;20203;-81
2022/04/04 02:15:12;;;;;;;8.95;5.30;;;2.60;99.90;;;;;;6701664;88;20228;-78
2022/04/04 02:25:13;;;;;;;10.45;5.65;;;2.60;99.90;;;;;;6710208;88;20216;-78
2022/04/04 02:35:14;;;;;;;9.98;5.82;;;2.80;99.90;;;;;;6711717;88;20188;-79
2022/04/04 02:45:14;;;;;;;10.23;5.87;;;2.80;99.90;;;;;;6712203;88;20202;-78
2022/04/04 03:05:36;;;;;;;9.57;5.90;;;2.90;99.90;;;;;;6713373;88;20266;-81
2022/04/04 03:15:37;;;;;;;9.48;5.87;;;2.70;99.90;;;;;;6711030;89;20204;-81
2022/04/04 03:25:37;;;;;;;8.65;5.70;;;2.50;99.90;;;;;;6711826;88;20265;-81
2022/04/04 03:35:38;;;;;;;9.02;5.78;;;2.50;99.90;;;;;;6715338;88;20202;-80
2022/04/04 03:45:39;;;;;;;10.55;5.57;;;2.20;99.90;;;;;;6717149;88;20808;-81
2022/04/04 03:55:40;;;;;;;8.93;5.45;;;2.40;99.90;;;;;;6697140;89;21186;-80
2022/04/04 04:05:41;;;;;;;8.23;5.12;;;2.30;99.90;;;;;;6661709;89;20196;-80
2022/04/04 04:15:42;;;;;;;7.90;5.28;;;2.30;99.90;;;;;;6663155;89;20319;-81
2022/04/04 04:25:43;;;;;;;8.93;5.30;;;2.20;99.90;;;;;;6676540;89;20286;-81
2022/04/04 04:35:44;;;;;;;9.73;5.47;;;2.40;99.90;;;;;;6708129;88;20178;-81
2022/04/04 04:45:45;;;;;;;10.63;5.90;;;2.30;99.90;;;;;;6716148;88;20204;-81
2022/04/04 04:55:46;;;;;;;11.02;6.07;;;2.30;99.90;;;;;;6714551;88;20509;-81
2022/04/04 05:05:47;;;;;;;11.52;6.18;;;2.20;99.90;;;;;;6714436;88;20239;-80
2022/04/04 05:15:48;;;;;;;9.07;5.30;;;2.30;99.90;;;;;;6715101;88;20206;-81
2022/04/04 05:25:48;;;;;;;11.75;6.12;;;2.50;99.90;;;;;;6677514;89;20261;-81
2022/04/04 05:35:49;;;;;;;8.07;4.75;;;2.60;99.90;;;;;;6683594;89;20810;-80
2022/04/04 05:45:49;;;;;;;10.70;5.37;;;2.70;99.90;;;;;;6692635;89;20198;-78
2022/04/04 05:55:50;;;;;;;9.80;5.32;;;2.80;99.90;;;;;;6705984;88;20254;-81
2022/04/04 06:05:51;;;;;;;9.02;5.37;;;2.90;99.90;;;;;;6709827;88;20206;-81
2022/04/04 06:15:52;;;;;;;8.75;5.00;;;3.10;99.90;;;;;;6712665;88;20162;-80
2022/04/04 06:25:53;;;;;;;9.23;4.78;;;3.40;99.90;;;;;;6722381;88;20182;-80
2022/04/04 06:35:54;;;;;;;10.45;4.82;;;3.70;99.90;;;;;;6725158;88;20197;-80
2022/04/04 06:45:54;;;;;;;7.68;4.68;;;4.00;99.90;;;;;;6726078;88;20818;-79
2022/04/04 06:55:55;;;;;;;7.72;4.25;;;4.20;99.90;;;;;;6725637;88;20221;-80
2022/04/04 07:05:56;;;;;;;7.37;4.20;;;4.30;99.90;;;;;;6726454;88;20222;-80
2022/04/04 07:15:56;;;;;;;5.97;3.92;;;4.50;99.90;;;;;;6724848;88;20662;-81
2022/04/04 07:25:57;;;;;;;7.62;3.70;;;4.80;99.90;;;;;;6705221;89;20718;-80
2022/04/04 07:35:58;;;;;;;5.15;3.37;;;5.00;99.90;;;;;;6694605;89;20199;-81
2022/04/04 07:45:58;;;;;;;5.55;3.40;;;5.40;99.90;;;;;;6705073;89;20207;-80
2022/04/04 07:55:59;;;;;;;6.68;2.78;;;6.00;99.90;;;;;;6706790;88;20211;-78
2022/04/04 08:05:59;;;;;;;6.72;2.70;;;6.70;99.90;;;;;;6723668;88;20186;-78
2022/04/04 08:16:00;;;;;;;6.30;2.35;;;6.80;99.90;;;;;;6729407;88;20162;-81
2022/04/04 08:26:01;;;;;;;3.97;2.20;;;6.60;99.90;;;;;;6726646;88;20750;-80
2022/04/04 08:36:03;;;;;;;4.03;2.17;;;6.50;99.90;;;;;;6725323;88;20225;-80
2022/04/04 08:46:06;;;;;;;4.03;2.58;;;7.00;99.90;;;;;;6724637;88;20492;-78
2022/04/04 08:56:11;;;;;;;4.55;2.50;;;7.30;99.10;;;;;;6724698;88;20198;-78
2022/04/04 09:06:12;;;;;;;4.20;2.65;;;7.80;98.90;;;;;;6723742;88;20224;-78
2022/04/04 09:16:13;;;;;;;3.60;2.30;;;7.80;97.90;;;;;;6723291;88;20418;-78
2022/04/04 09:26:31;;;;;;;3.35;2.12;;;8.00;96.80;;;;;;6725818;88;20236;-78
2022/04/04 09:36:32;;;;;;;3.72;2.40;;;7.90;96.30;;;;;;6723199;88;20734;-81
2022/04/04 09:46:34;;;;;;;7.10;2.47;;;7.90;96.80;;;;;;6722362;88;20192;-81
2022/04/04 09:56:34;;;;;;;6.90;2.47;;;7.40;96.00;;;;;;6719467;88;20357;-81
2022/04/04 10:06:37;;;;;;;3.60;2.15;;;7.30;96.50;;;;;;6718075;88;20193;-81
2022/04/04 10:16:38;;;;;;;3.42;2.17;;;7.50;96.10;;;;;;6719583;88;20338;-81
2022/04/04 10:26:39;;;;;;;3.53;2.08;;;7.60;96.40;;;;;;6719127;88;20845;-78
2022/04/04 10:37:07;;;;;;;4.97;2.20;;;7.80;96.00;;;;;;6722708;88;20252;-80
2022/04/04 10:47:20;;;;;;;4.82;1.98;;;8.00;96.60;;;;;;6719800;88;20283;-78
2022/04/04 10:57:22;;;;;;;5.65;2.42;;;7.80;97.10;;;;;;6720552;88;20194;-79
2022/04/04 11:07:41;;;;;;;3.50;2.03;;;7.50;98.70;;;;;;6721517;88;20220;-78
2022/04/04 11:18:00;;;;;;;4.85;1.90;;;7.60;98.30;;;;;;6724823;88;20209;-79
2022/04/04 11:28:01;;;;;;;4.70;2.08;;;8.00;96.90;;;;;;6699521;89;20248;-77
2022/04/04 11:38:12;;;;;;;5.07;2.40;;;8.30;96.80;;;;;;6699206;88;20257;-78
2022/04/04 11:48:17;;;;;;;5.75;2.70;;;7.70;99.90;;;;;;6700102;88;20302;-82
2022/04/04 11:58:20;;;;;;;4.00;2.53;;;6.90;99.90;;;;;;6718472;88;20610;-80
2022/04/04 12:08:21;;;;;;;6.22;2.90;;;6.50;99.90;;;;;;6707757;88;20294;-81
2022/04/04 12:18:31;;;;;;;6.35;3.25;;;6.30;99.90;;;;;;6707825;88;20214;-79
2022/04/04 12:28:36;;;;;;;6.45;3.40;;;5.90;99.90;;;;;;6710341;88;20221;-79
2022/04/04 12:38:41;;;;;;;8.47;3.10;;;5.80;99.90;;;;;;6708182;88;20216;-79
2022/04/04 12:48:43;;;;;;;7.28;2.90;;;5.90;99.90;;;;;;6706520;88;20215;-79
2022/04/04 12:59:06;;;;;;;5.32;3.17;;;6.10;99.90;;;;;;6707667;88;20186;-78
2022/04/04 13:09:07;;;;;;;5.00;3.10;;;6.10;99.90;;;;;;6722840;88;20194;-79
2022/04/04 13:19:15;;;;;;;6.57;3.40;;;6.10;99.90;;;;;;6725142;88;20680;-80
2022/04/04 13:29:18;;;;;;;8.13;3.10;;;5.60;99.90;;;;;;6725498;88;20189;-79
2022/04/04 13:39:19;;;;;;;8.70;3.80;;;5.70;99.90;;;;;;6727472;88;20273;-79
2022/04/04 13:49:20;;;;;;;6.68;3.85;;;5.50;99.90;;;;;;6728309;88;20381;-79
2022/04/04 13:59:21;;;;;;;8.35;4.22;;;5.50;99.90;;;;;;6725448;88;20659;-79
2022/04/04 14:09:21;;;;;;;7.62;4.03;;;5.50;99.90;;;;;;6708899;88;20701;-79
2022/04/04 14:19:22;;;;;;;8.25;4.35;;;5.90;99.90;;;;;;6709662;88;20236;-79
2022/04/04 14:29:22;;;;;;;7.53;4.55;;;5.90;99.90;;;;;;6702472;88;20247;-79
2022/04/04 14:39:23;;;;;;;7.90;4.40;;;5.80;99.90;;;;;;6715562;88;20849;-82
2022/04/04 14:49:23;;;;;;;10.15;4.70;;;5.70;99.90;;;;;;6697048;88;20207;-82
2022/04/04 14:59:24;;;;;;;6.60;4.75;;;5.60;99.90;;;;;;6662242;89;20180;-83
2022/04/04 15:09:24;;;;;;;8.60;4.85;;;5.70;99.90;;;;;;6662541;89;20235;-82
2022/04/04 15:19:25;;;;;;;7.50;4.60;;;5.60;99.90;;;;;;6675908;89;20184;-83
2022/04/04 15:30:08;;;;;;;7.62;4.50;;;5.60;99.90;;;;;;6681727;78;20338;-82
2022/04/04 15:40:10;;;;;;;6.28;4.03;;;5.60;99.90;;;;;;6742011;88;20205;-82
2022/04/04 15:50:13;;;;;;;6.18;4.15;;;5.60;99.90;;;;;;6749082;88;20933;-82
2022/04/04 16:00:14;;;;;;;5.37;3.65;;;5.50;99.90;;;;;;6749422;88;20183;-81
2022/04/04 16:10:16;;;;;;;5.10;3.62;;;5.60;99.90;;;;;;6747692;88;20164;-81
2022/04/04 16:20:17;;;;;;;4.50;3.40;;;5.60;99.90;;;;;;6728132;88;20209;-84
2022/04/04 16:30:18;;;;;;;4.78;2.87;;;5.60;99.90;;;;;;6730086;88;20886;-82
2022/04/04 16:40:19;;;;;;;3.58;2.20;;;5.60;99.90;;;;;;6731979;88;20202;-82
2022/04/04 16:50:20;;;;;;;3.58;2.30;;;5.70;99.90;;;;;;6743111;88;21049;-82
2022/04/04 17:00:21;;;;;;;2.60;1.70;;;5.80;99.90;;;;;;6714668;88;20189;-80
2022/04/04 17:10:22;;;;;;;3.47;1.85;;;5.90;99.90;;;;;;6697340;89;20919;-80
2022/04/04 17:20:25;;;;;;;2.22;1.40;;;6.00;99.90;;;;;;6679465;89;20724;-81
2022/04/04 17:30:25;;;;;;;2.80;1.30;;;6.00;99.90;;;;;;6705960;88;20241;-81
2022/04/04 17:40:26;;;;;;;2.30;1.30;;;6.20;99.90;;;;;;6713031;88;20294;-82
2022/04/04 17:50:27;;;;;;;2.22;1.20;;;6.10;99.90;;;;;;6741364;88;20196;-82
2022/04/04 18:00:27;;;;;;;1.50;1.00;;;6.10;99.90;;;;;;6712657;88;20220;-80
2022/04/04 18:10:28;;;;;;;2.25;1.10;;;6.30;99.90;;;;;;6712916;88;20882;-83
2022/04/04 18:20:29;;;;;;;2.83;1.10;;;6.30;99.90;;;;;;6712914;88;20385;-82
2022/04/04 18:30:32;;;;;;;1.73;0.90;;;6.40;99.90;;;;;;6696117;88;20203;-82
2022/04/04 18:40:33;;;;;;;1.62;0.70;;;6.50;99.90;;;;;;6696714;88;20399;-83
2022/04/04 18:50:33;;;;;;;2.20;0.82;;;6.50;99.90;;;;;;6695232;88;20828;-81
2022/04/04 19:00:34;;;;;;;1.27;0.70;;;6.60;99.90;;;;;;6724483;88;20194;-81
2022/04/04 19:10:36;;;;;;;1.25;0.70;;;6.70;99.90;;;;;;6728265;88;20639;-81
2022/04/04 19:20:37;;;;;;;1.20;0.70;;;6.70;99.90;;;;;;6700886;88;20333;-82
2022/04/04 19:30:38;;;;;;;1.20;0.70;;;6.80;99.90;;;;;;6706545;88;20182;-80
2022/04/04 19:40:38;;;;;;;1.35;0.70;;;6.90;99.90;;;;;;6690675;89;20195;-80
2022/04/04 19:50:39;;;;;;;2.45;1.00;;;7.00;99.90;;;;;;6693553;89;20199;-81
2022/04/04 20:00:39;;;;;;;1.85;0.80;;;7.00;99.90;;;;;;6693822;89;20220;-81
2022/04/04 20:10:40;;;;;;;2.03;0.68;;;7.00;99.90;;;;;;6723292;88;20475;-82
2022/04/04 20:20:40;;;;;;;0.97;0.43;;;7.10;99.90;;;;;;6733635;88;20165;-81
2022/04/04 20:30:41;;;;;;;1.17;0.65;;;7.20;99.90;;;;;;6750307;88;20478;-81
2022/04/04 20:40:43;;;;;;;1.60;0.80;;;7.20;99.90;;;;;;6750405;88;20185;-81
2022/04/04 20:50:44;;;;;;;1.30;0.62;;;7.30;99.90;;;;;;6750249;88;20188;-80
2022/04/04 21:00:44;;;;;;;1.20;0.70;;;7.40;99.90;;;;;;6748805;88;20185;-82
2022/04/04 21:10:47;;;;;;;2.08;0.77;;;7.50;99.90;;;;;;6711335;88;20344;-81
2022/04/04 21:20:48;;;;;;;1.00;0.50;;;7.50;99.90;;;;;;6744598;88;20160;-81
2022/04/04 21:31:31;;;;;;;1.25;0.52;;;7.70;99.90;;;;;;6749674;77;20244;-80
2022/04/04 21:41:31;;;;;;;1.25;0.70;;;7.70;99.90;;;;;;6767344;88;20189;-79
2022/04/04 21:51:32;;;;;;;1.20;0.60;;;7.80;99.90;;;;;;6765054;88;20281;-80
2022/04/04 22:01:32;;;;;;;1.12;0.60;;;7.80;99.90;;;;;;6769522;88;20579;-80
2022/04/04 22:11:33;;;;;;;1.33;0.70;;;7.90;99.90;;;;;;6767302;88;20184;-79
2022/04/04 22:21:33;;;;;;;1.30;0.50;;;7.90;99.90;;;;;;6762295;88;20213;-79
2022/04/04 22:31:34;;;;;;;0.93;0.50;;;8.00;99.90;;;;;;6758158;88;20309;-79
2022/04/04 22:41:35;;;;;;;0.80;0.40;;;7.90;99.90;;;;;;6757673;88;20233;-80
2022/04/04 22:51:35;;;;;;;0.80;0.40;;;7.90;99.90;;;;;;6765173;88;20165;-81
2022/04/04 23:01:36;;;;;;;0.62;0.30;;;8.00;99.90;;;;;;6765936;88;20214;-80
2022/04/04 23:11:37;;;;;;;0.77;0.37;;;7.70;99.90;;;;;;6766297;88;20220;-80
2022/04/04 23:21:37;;;;;;;0.60;0.30;;;8.00;99.90;;;;;;6746759;88;20252;-80
2022/04/04 23:31:38;;;;;;;1.50;0.32;;;7.90;99.90;;;;;;6743614;88;20194;-80
2022/04/04 23:41:38;;;;;;;0.70;0.30;;;8.10;99.90;;;;;;6741765;88;20261;-81
2022/04/04 23:51:39;;;;;;;0.80;0.25;;;8.20;99.90;;;;;;6723192;88;20337;-80
